CheckWX is a tool to help pilots better visualize weather data.  It is not intended as a substitute for an official pre-flight weather briefing.

18:29:50 UTC

KCTZ METAR
Clinton-Sampson County Airport
Clinton, North Carolina, USA
Current

30 mins ago

KCTZ 241800Z AUTO 29003KT 10SM CLR 29/14 A2992 RMK AO2 T02890138
Observed
Apr-24 @ 18:00 UTC
Wind
  • 290° at 3 KTS
Visibility
10 SM
Flight Rules
VFR
Cloud Levels
  • Clear skies
Temperature
29°C / 84°F
Dewpoint
14°C / 57°F
Heat Index
28°C / 83°F
Humidity
40%
Altimeter
29.92" Hg
Pressure
1013.22 hPa
Previous

50 mins ago

KCTZ 241740Z AUTO 33005KT 10SM CLR 29/14 A2993 RMK AO2 T02870135
Observed
Apr-24 @ 17:40 UTC
Wind
  • 330° at 5 KTS
Visibility
10 SM
Flight Rules
VFR
Cloud Levels
  • Clear skies
Temperature
29°C / 84°F
Dewpoint
14°C / 57°F
Heat Index
28°C / 83°F
Humidity
40%
Altimeter
29.93" Hg
Pressure
1013.52 hPa
Previous

1 hour ago

KCTZ 241720Z AUTO 32004KT 10SM CLR 29/14 A2993 RMK AO2 T02870139
Observed
Apr-24 @ 17:20 UTC
Wind
  • 320° at 4 KTS
Visibility
10 SM
Flight Rules
VFR
Cloud Levels
  • Clear skies
Temperature
29°C / 84°F
Dewpoint
14°C / 57°F
Heat Index
28°C / 83°F
Humidity
40%
Altimeter
29.93" Hg
Pressure
1013.52 hPa